sensor_id;sensor_type;location;lat;lon;timestamp;P1;durP1;ratioP1;P2;durP2;ratioP2
77262;SDS011;66373;52.334;4.806;2024-03-08T00:00:34;19.95;;;14.00;;
77262;SDS011;66373;52.334;4.806;2024-03-08T00:03:04;17.98;;;13.40;;
77262;SDS011;66373;52.334;4.806;2024-03-08T00:05:31;16.77;;;12.95;;
77262;SDS011;66373;52.334;4.806;2024-03-08T00:07:59;15.63;;;12.43;;
77262;SDS011;66373;52.334;4.806;2024-03-08T00:10:26;16.55;;;13.02;;
77262;SDS011;66373;52.334;4.806;2024-03-08T00:12:54;17.67;;;13.73;;
77262;SDS011;66373;52.334;4.806;2024-03-08T00:15:23;15.20;;;12.45;;
77262;SDS011;66373;52.334;4.806;2024-03-08T00:17:50;17.65;;;13.02;;
77262;SDS011;66373;52.334;4.806;2024-03-08T00:20:18;16.55;;;12.65;;
77262;SDS011;66373;52.334;4.806;2024-03-08T00:22:46;16.92;;;12.88;;
77262;SDS011;66373;52.334;4.806;2024-03-08T00:25:13;18.08;;;13.38;;
77262;SDS011;66373;52.334;4.806;2024-03-08T00:27:41;18.10;;;12.52;;
77262;SDS011;66373;52.334;4.806;2024-03-08T00:30:09;16.90;;;12.32;;
77262;SDS011;66373;52.334;4.806;2024-03-08T00:32:38;16.42;;;12.77;;
77262;SDS011;66373;52.334;4.806;2024-03-08T00:35:05;16.52;;;13.52;;
77262;SDS011;66373;52.334;4.806;2024-03-08T00:37:35;16.48;;;12.18;;
77262;SDS011;66373;52.334;4.806;2024-03-08T00:40:02;16.52;;;13.02;;
77262;SDS011;66373;52.334;4.806;2024-03-08T00:42:30;15.95;;;11.77;;
77262;SDS011;66373;52.334;4.806;2024-03-08T00:44:58;15.88;;;12.20;;
77262;SDS011;66373;52.334;4.806;2024-03-08T00:47:25;17.67;;;12.88;;
77262;SDS011;66373;52.334;4.806;2024-03-08T00:49:53;15.60;;;12.65;;
77262;SDS011;66373;52.334;4.806;2024-03-08T00:52:22;17.30;;;13.18;;
77262;SDS011;66373;52.334;4.806;2024-03-08T00:54:50;15.40;;;12.07;;
77262;SDS011;66373;52.334;4.806;2024-03-08T00:57:18;15.82;;;12.18;;
77262;SDS011;66373;52.334;4.806;2024-03-08T00:59:46;16.02;;;12.05;;
77262;SDS011;66373;52.334;4.806;2024-03-08T01:02:13;16.52;;;12.10;;
77262;SDS011;66373;52.334;4.806;2024-03-08T01:04:42;17.98;;;12.48;;
77262;SDS011;66373;52.334;4.806;2024-03-08T01:07:10;16.05;;;12.43;;
77262;SDS011;66373;52.334;4.806;2024-03-08T01:09:37;16.23;;;12.00;;
77262;SDS011;66373;52.334;4.806;2024-03-08T01:12:06;16.08;;;11.90;;
77262;SDS011;66373;52.334;4.806;2024-03-08T01:14:33;15.55;;;11.82;;
77262;SDS011;66373;52.334;4.806;2024-03-08T01:17:01;13.25;;;11.00;;
77262;SDS011;66373;52.334;4.806;2024-03-08T01:19:28;15.85;;;11.80;;
77262;SDS011;66373;52.334;4.806;2024-03-08T01:21:58;14.38;;;11.52;;
77262;SDS011;66373;52.334;4.806;2024-03-08T01:24:25;16.35;;;11.93;;
77262;SDS011;66373;52.334;4.806;2024-03-08T01:26:52;14.73;;;11.27;;
77262;SDS011;66373;52.334;4.806;2024-03-08T01:29:21;12.80;;;10.40;;
77262;SDS011;66373;52.334;4.806;2024-03-08T01:31:48;14.98;;;12.05;;
77262;SDS011;66373;52.334;4.806;2024-03-08T01:34:17;15.13;;;11.55;;
77262;SDS011;66373;52.334;4.806;2024-03-08T01:36:44;13.98;;;11.43;;
77262;SDS011;66373;52.334;4.806;2024-03-08T01:39:12;15.02;;;11.85;;
77262;SDS011;66373;52.334;4.806;2024-03-08T01:41:39;13.63;;;10.02;;
77262;SDS011;66373;52.334;4.806;2024-03-08T01:44:06;14.18;;;11.70;;
77262;SDS011;66373;52.334;4.806;2024-03-08T01:46:35;14.20;;;11.07;;
77262;SDS011;66373;52.334;4.806;2024-03-08T01:49:03;13.50;;;11.13;;
77262;SDS011;66373;52.334;4.806;2024-03-08T01:51:31;12.25;;;10.20;;
77262;SDS011;66373;52.334;4.806;2024-03-08T01:53:58;17.27;;;11.95;;
77262;SDS011;66373;52.334;4.806;2024-03-08T01:56:29;13.13;;;10.73;;
77262;SDS011;66373;52.334;4.806;2024-03-08T01:58:57;14.10;;;10.30;;
77262;SDS011;66373;52.334;4.806;2024-03-08T02:01:26;13.98;;;10.60;;
77262;SDS011;66373;52.334;4.806;2024-03-08T02:03:55;14.18;;;10.70;;
77262;SDS011;66373;52.334;4.806;2024-03-08T02:06:23;12.30;;;9.93;;
77262;SDS011;66373;52.334;4.806;2024-03-08T02:08:50;14.25;;;10.85;;
77262;SDS011;66373;52.334;4.806;2024-03-08T02:11:18;11.60;;;10.15;;
77262;SDS011;66373;52.334;4.806;2024-03-08T02:13:45;13.05;;;10.70;;
77262;SDS011;66373;52.334;4.806;2024-03-08T02:16:19;11.50;;;9.25;;
77262;SDS011;66373;52.334;4.806;2024-03-08T02:18:47;13.38;;;9.95;;
77262;SDS011;66373;52.334;4.806;2024-03-08T02:21:16;13.32;;;9.93;;
77262;SDS011;66373;52.334;4.806;2024-03-08T02:23:44;11.75;;;9.40;;
77262;SDS011;66373;52.334;4.806;2024-03-08T02:26:11;12.07;;;10.25;;
77262;SDS011;66373;52.334;4.806;2024-03-08T02:28:39;12.18;;;9.57;;
77262;SDS011;66373;52.334;4.806;2024-03-08T02:31:08;14.13;;;10.07;;
77262;SDS011;66373;52.334;4.806;2024-03-08T02:33:36;15.10;;;9.75;;
77262;SDS011;66373;52.334;4.806;2024-03-08T02:36:03;11.93;;;9.85;;
77262;SDS011;66373;52.334;4.806;2024-03-08T02:38:33;12.65;;;9.63;;
77262;SDS011;66373;52.334;4.806;2024-03-08T02:41:00;11.85;;;9.15;;
77262;SDS011;66373;52.334;4.806;2024-03-08T02:43:29;11.07;;;9.27;;
77262;SDS011;66373;52.334;4.806;2024-03-08T02:45:56;13.07;;;9.75;;
77262;SDS011;66373;52.334;4.806;2024-03-08T02:48:23;10.90;;;8.98;;
77262;SDS011;66373;52.334;4.806;2024-03-08T02:50:51;12.80;;;9.75;;
77262;SDS011;66373;52.334;4.806;2024-03-08T02:53:19;11.00;;;8.73;;
77262;SDS011;66373;52.334;4.806;2024-03-08T02:55:47;10.45;;;8.63;;
77262;SDS011;66373;52.334;4.806;2024-03-08T02:58:15;11.45;;;9.07;;
77262;SDS011;66373;52.334;4.806;2024-03-08T03:00:42;11.23;;;9.20;;
77262;SDS011;66373;52.334;4.806;2024-03-08T03:03:09;11.15;;;8.52;;
77262;SDS011;66373;52.334;4.806;2024-03-08T03:05:36;11.35;;;9.13;;
77262;SDS011;66373;52.334;4.806;2024-03-08T03:08:06;11.15;;;9.23;;
77262;SDS011;66373;52.334;4.806;2024-03-08T03:10:34;10.98;;;8.85;;
77262;SDS011;66373;52.334;4.806;2024-03-08T03:13:03;11.00;;;8.68;;
77262;SDS011;66373;52.334;4.806;2024-03-08T03:15:31;9.82;;;8.27;;
77262;SDS011;66373;52.334;4.806;2024-03-08T03:17:59;11.63;;;9.07;;
77262;SDS011;66373;52.334;4.806;2024-03-08T03:20:26;10.38;;;8.38;;
77262;SDS011;66373;52.334;4.806;2024-03-08T03:22:58;10.85;;;8.65;;
77262;SDS011;66373;52.334;4.806;2024-03-08T03:25:27;11.57;;;8.70;;
77262;SDS011;66373;52.334;4.806;2024-03-08T03:27:59;9.73;;;8.13;;
77262;SDS011;66373;52.334;4.806;2024-03-08T03:30:28;10.68;;;8.15;;
77262;SDS011;66373;52.334;4.806;2024-03-08T03:32:58;9.77;;;8.63;;
77262;SDS011;66373;52.334;4.806;2024-03-08T03:35:27;9.45;;;8.43;;
77262;SDS011;66373;52.334;4.806;2024-03-08T03:37:54;11.13;;;8.55;;
77262;SDS011;66373;52.334;4.806;2024-03-08T03:40:32;10.02;;;7.45;;
77262;SDS011;66373;52.334;4.806;2024-03-08T03:42:59;11.00;;;9.02;;
77262;SDS011;66373;52.334;4.806;2024-03-08T03:45:29;10.52;;;8.27;;
77262;SDS011;66373;52.334;4.806;2024-03-08T03:48:01;9.38;;;8.05;;
77262;SDS011;66373;52.334;4.806;2024-03-08T03:50:29;10.55;;;8.50;;
77262;SDS011;66373;52.334;4.806;2024-03-08T03:52:59;11.77;;;8.05;;
77262;SDS011;66373;52.334;4.806;2024-03-08T03:55:27;10.45;;;8.02;;
77262;SDS011;66373;52.334;4.806;2024-03-08T03:57:54;10.15;;;7.70;;
77262;SDS011;66373;52.334;4.806;2024-03-08T04:00:24;9.00;;;8.10;;
77262;SDS011;66373;52.334;4.806;2024-03-08T04:02:53;11.25;;;8.18;;
77262;SDS011;66373;52.334;4.806;2024-03-08T04:05:24;9.50;;;8.02;;
77262;SDS011;66373;52.334;4.806;2024-03-08T04:07:51;10.57;;;8.27;;
77262;SDS011;66373;52.334;4.806;2024-03-08T04:10:18;8.85;;;7.70;;
77262;SDS011;66373;52.334;4.806;2024-03-08T04:12:46;8.43;;;7.53;;
77262;SDS011;66373;52.334;4.806;2024-03-08T04:15:13;11.25;;;7.88;;
77262;SDS011;66373;52.334;4.806;2024-03-08T04:17:41;9.45;;;7.82;;
77262;SDS011;66373;52.334;4.806;2024-03-08T04:20:09;9.18;;;7.78;;
77262;SDS011;66373;52.334;4.806;2024-03-08T04:22:40;8.55;;;7.70;;
77262;SDS011;66373;52.334;4.806;2024-03-08T04:25:07;10.02;;;8.23;;
77262;SDS011;66373;52.334;4.806;2024-03-08T04:27:35;8.48;;;7.60;;
77262;SDS011;66373;52.334;4.806;2024-03-08T04:30:03;8.30;;;7.50;;
77262;SDS011;66373;52.334;4.806;2024-03-08T04:32:32;8.35;;;7.00;;
77262;SDS011;66373;52.334;4.806;2024-03-08T04:34:59;8.13;;;6.78;;
77262;SDS011;66373;52.334;4.806;2024-03-08T04:37:30;9.75;;;7.32;;
77262;SDS011;66373;52.334;4.806;2024-03-08T04:39:57;8.55;;;7.57;;
77262;SDS011;66373;52.334;4.806;2024-03-08T04:42:25;10.25;;;7.72;;
77262;SDS011;66373;52.334;4.806;2024-03-08T04:44:54;9.52;;;7.43;;
77262;SDS011;66373;52.334;4.806;2024-03-08T04:47:21;7.90;;;7.10;;
77262;SDS011;66373;52.334;4.806;2024-03-08T04:49:48;8.32;;;7.43;;
77262;SDS011;66373;52.334;4.806;2024-03-08T04:52:16;9.38;;;7.65;;
77262;SDS011;66373;52.334;4.806;2024-03-08T04:54:44;9.25;;;7.28;;
77262;SDS011;66373;52.334;4.806;2024-03-08T04:57:11;9.82;;;7.22;;
77262;SDS011;66373;52.334;4.806;2024-03-08T04:59:39;8.82;;;7.30;;
77262;SDS011;66373;52.334;4.806;2024-03-08T05:02:06;10.23;;;7.20;;
77262;SDS011;66373;52.334;4.806;2024-03-08T05:04:33;9.45;;;7.18;;
77262;SDS011;66373;52.334;4.806;2024-03-08T05:07:01;8.65;;;7.28;;
77262;SDS011;66373;52.334;4.806;2024-03-08T05:09:29;10.18;;;7.43;;
77262;SDS011;66373;52.334;4.806;2024-03-08T05:11:59;8.27;;;7.35;;
77262;SDS011;66373;52.334;4.806;2024-03-08T05:14:27;9.75;;;6.93;;
77262;SDS011;66373;52.334;4.806;2024-03-08T05:16:54;9.40;;;6.93;;
77262;SDS011;66373;52.334;4.806;2024-03-08T05:19:22;7.70;;;6.53;;
77262;SDS011;66373;52.334;4.806;2024-03-08T05:21:49;10.45;;;6.93;;
77262;SDS011;66373;52.334;4.806;2024-03-08T05:24:17;9.65;;;7.10;;
77262;SDS011;66373;52.334;4.806;2024-03-08T05:26:44;11.15;;;7.25;;
77262;SDS011;66373;52.334;4.806;2024-03-08T05:29:14;8.93;;;6.72;;
77262;SDS011;66373;52.334;4.806;2024-03-08T05:31:45;8.18;;;7.03;;
77262;SDS011;66373;52.334;4.806;2024-03-08T05:34:13;9.38;;;7.35;;
77262;SDS011;66373;52.334;4.806;2024-03-08T05:36:41;10.98;;;6.93;;
77262;SDS011;66373;52.334;4.806;2024-03-08T05:39:10;10.45;;;7.20;;
77262;SDS011;66373;52.334;4.806;2024-03-08T05:41:38;10.55;;;7.40;;
77262;SDS011;66373;52.334;4.806;2024-03-08T05:44:05;9.13;;;7.07;;
77262;SDS011;66373;52.334;4.806;2024-03-08T05:46:34;9.25;;;6.47;;
77262;SDS011;66373;52.334;4.806;2024-03-08T05:49:01;10.73;;;6.78;;
77262;SDS011;66373;52.334;4.806;2024-03-08T05:51:30;7.03;;;6.32;;
77262;SDS011;66373;52.334;4.806;2024-03-08T05:54:00;7.78;;;6.75;;
77262;SDS011;66373;52.334;4.806;2024-03-08T05:56:28;7.85;;;6.47;;
77262;SDS011;66373;52.334;4.806;2024-03-08T05:58:56;8.23;;;6.28;;
77262;SDS011;66373;52.334;4.806;2024-03-08T06:01:24;7.55;;;6.55;;
77262;SDS011;66373;52.334;4.806;2024-03-08T06:03:52;7.55;;;6.63;;
77262;SDS011;66373;52.334;4.806;2024-03-08T06:06:21;8.73;;;6.78;;
77262;SDS011;66373;52.334;4.806;2024-03-08T06:08:48;7.68;;;6.60;;
77262;SDS011;66373;52.334;4.806;2024-03-08T06:11:16;7.72;;;6.50;;
77262;SDS011;66373;52.334;4.806;2024-03-08T06:13:44;7.78;;;6.55;;
77262;SDS011;66373;52.334;4.806;2024-03-08T06:16:12;9.70;;;7.50;;
77262;SDS011;66373;52.334;4.806;2024-03-08T06:18:39;9.50;;;7.07;;
77262;SDS011;66373;52.334;4.806;2024-03-08T06:21:08;7.60;;;6.82;;
77262;SDS011;66373;52.334;4.806;2024-03-08T06:23:36;9.07;;;7.07;;
77262;SDS011;66373;52.334;4.806;2024-03-08T06:26:04;10.32;;;7.22;;
77262;SDS011;66373;52.334;4.806;2024-03-08T06:28:31;9.32;;;7.00;;
77262;SDS011;66373;52.334;4.806;2024-03-08T06:31:00;14.55;;;7.30;;
77262;SDS011;66373;52.334;4.806;2024-03-08T06:33:27;11.20;;;7.05;;
77262;SDS011;66373;52.334;4.806;2024-03-08T06:35:55;15.68;;;6.93;;
77262;SDS011;66373;52.334;4.806;2024-03-08T06:38:24;11.50;;;7.20;;
77262;SDS011;66373;52.334;4.806;2024-03-08T06:40:52;11.98;;;7.15;;
77262;SDS011;66373;52.334;4.806;2024-03-08T06:43:20;10.10;;;7.47;;
77262;SDS011;66373;52.334;4.806;2024-03-08T06:45:47;10.18;;;6.60;;
77262;SDS011;66373;52.334;4.806;2024-03-08T06:48:15;13.13;;;7.63;;
77262;SDS011;66373;52.334;4.806;2024-03-08T06:50:42;12.73;;;8.18;;
77262;SDS011;66373;52.334;4.806;2024-03-08T06:53:11;12.63;;;7.25;;
77262;SDS011;66373;52.334;4.806;2024-03-08T06:55:40;10.70;;;7.28;;
77262;SDS011;66373;52.334;4.806;2024-03-08T06:58:07;10.27;;;7.65;;
77262;SDS011;66373;52.334;4.806;2024-03-08T07:00:36;11.23;;;6.53;;
77262;SDS011;66373;52.334;4.806;2024-03-08T07:03:03;11.50;;;7.10;;
77262;SDS011;66373;52.334;4.806;2024-03-08T07:05:37;13.40;;;7.28;;
77262;SDS011;66373;52.334;4.806;2024-03-08T07:08:05;10.88;;;8.05;;
77262;SDS011;66373;52.334;4.806;2024-03-08T07:10:33;10.68;;;7.80;;
77262;SDS011;66373;52.334;4.806;2024-03-08T07:13:03;12.13;;;7.53;;
77262;SDS011;66373;52.334;4.806;2024-03-08T07:15:31;12.43;;;7.60;;
77262;SDS011;66373;52.334;4.806;2024-03-08T07:17:58;10.50;;;6.90;;
77262;SDS011;66373;52.334;4.806;2024-03-08T07:20:26;11.73;;;6.63;;
77262;SDS011;66373;52.334;4.806;2024-03-08T07:22:54;11.07;;;7.32;;
77262;SDS011;66373;52.334;4.806;2024-03-08T07:25:21;11.23;;;7.60;;
77262;SDS011;66373;52.334;4.806;2024-03-08T07:27:50;15.05;;;7.68;;
77262;SDS011;66373;52.334;4.806;2024-03-08T07:30:19;8.35;;;7.38;;
77262;SDS011;66373;52.334;4.806;2024-03-08T07:33:10;11.15;;;7.43;;
77262;SDS011;66373;52.334;4.806;2024-03-08T07:35:38;11.63;;;6.78;;
77262;SDS011;66373;52.334;4.806;2024-03-08T07:38:07;12.10;;;7.40;;
77262;SDS011;66373;52.334;4.806;2024-03-08T07:40:35;11.68;;;7.80;;
77262;SDS011;66373;52.334;4.806;2024-03-08T07:43:04;9.13;;;6.78;;
77262;SDS011;66373;52.334;4.806;2024-03-08T07:45:33;11.02;;;7.75;;
77262;SDS011;66373;52.334;4.806;2024-03-08T07:48:01;11.25;;;7.82;;
77262;SDS011;66373;52.334;4.806;2024-03-08T07:50:28;11.77;;;7.85;;
77262;SDS011;66373;52.334;4.806;2024-03-08T07:52:56;12.68;;;8.05;;
77262;SDS011;66373;52.334;4.806;2024-03-08T07:55:23;17.13;;;8.25;;
77262;SDS011;66373;52.334;4.806;2024-03-08T07:57:51;12.25;;;8.50;;
77262;SDS011;66373;52.334;4.806;2024-03-08T08:00:19;15.90;;;8.55;;
77262;SDS011;66373;52.334;4.806;2024-03-08T08:02:48;12.82;;;7.97;;
77262;SDS011;66373;52.334;4.806;2024-03-08T08:05:15;16.80;;;9.05;;
77262;SDS011;66373;52.334;4.806;2024-03-08T08:07:44;13.90;;;8.10;;
77262;SDS011;66373;52.334;4.806;2024-03-08T08:10:12;13.98;;;8.18;;
77262;SDS011;66373;52.334;4.806;2024-03-08T08:12:44;15.23;;;8.15;;
77262;SDS011;66373;52.334;4.806;2024-03-08T08:15:12;10.55;;;7.03;;
77262;SDS011;66373;52.334;4.806;2024-03-08T08:17:40;11.13;;;7.50;;
77262;SDS011;66373;52.334;4.806;2024-03-08T08:20:10;15.45;;;7.90;;
77262;SDS011;66373;52.334;4.806;2024-03-08T08:22:38;13.80;;;7.20;;
77262;SDS011;66373;52.334;4.806;2024-03-08T08:25:06;11.73;;;7.47;;
77262;SDS011;66373;52.334;4.806;2024-03-08T08:27:34;10.15;;;6.78;;
77262;SDS011;66373;52.334;4.806;2024-03-08T08:30:03;12.20;;;6.72;;
77262;SDS011;66373;52.334;4.806;2024-03-08T08:32:33;12.82;;;7.13;;
77262;SDS011;66373;52.334;4.806;2024-03-08T08:35:02;13.27;;;7.00;;
77262;SDS011;66373;52.334;4.806;2024-03-08T08:37:31;13.93;;;8.00;;
77262;SDS011;66373;52.334;4.806;2024-03-08T08:40:01;9.95;;;7.22;;
77262;SDS011;66373;52.334;4.806;2024-03-08T08:42:31;10.45;;;6.88;;
77262;SDS011;66373;52.334;4.806;2024-03-08T08:44:58;10.48;;;7.25;;
77262;SDS011;66373;52.334;4.806;2024-03-08T08:47:26;12.00;;;7.53;;
77262;SDS011;66373;52.334;4.806;2024-03-08T08:49:54;12.35;;;7.40;;
77262;SDS011;66373;52.334;4.806;2024-03-08T08:52:21;11.50;;;6.63;;
77262;SDS011;66373;52.334;4.806;2024-03-08T08:54:49;11.07;;;6.97;;
77262;SDS011;66373;52.334;4.806;2024-03-08T08:57:17;8.82;;;6.45;;
77262;SDS011;66373;52.334;4.806;2024-03-08T08:59:44;11.43;;;7.05;;
77262;SDS011;66373;52.334;4.806;2024-03-08T09:02:11;9.35;;;7.07;;
77262;SDS011;66373;52.334;4.806;2024-03-08T09:04:42;9.38;;;7.00;;
77262;SDS011;66373;52.334;4.806;2024-03-08T09:07:09;9.30;;;6.88;;
77262;SDS011;66373;52.334;4.806;2024-03-08T09:09:36;10.45;;;7.20;;
77262;SDS011;66373;52.334;4.806;2024-03-08T09:12:05;8.38;;;7.03;;
77262;SDS011;66373;52.334;4.806;2024-03-08T09:14:33;12.20;;;7.00;;
77262;SDS011;66373;52.334;4.806;2024-03-08T09:17:00;8.73;;;6.82;;
77262;SDS011;66373;52.334;4.806;2024-03-08T09:19:28;9.48;;;7.20;;
77262;SDS011;66373;52.334;4.806;2024-03-08T09:21:55;9.63;;;7.00;;
77262;SDS011;66373;52.334;4.806;2024-03-08T09:24:22;10.20;;;7.05;;
77262;SDS011;66373;52.334;4.806;2024-03-08T09:26:49;9.70;;;6.60;;
77262;SDS011;66373;52.334;4.806;2024-03-08T09:29:19;10.75;;;7.03;;
77262;SDS011;66373;52.334;4.806;2024-03-08T09:31:46;8.68;;;6.82;;
77262;SDS011;66373;52.334;4.806;2024-03-08T09:34:13;9.35;;;7.07;;
77262;SDS011;66373;52.334;4.806;2024-03-08T09:36:40;7.05;;;6.10;;
77262;SDS011;66373;52.334;4.806;2024-03-08T09:39:09;10.52;;;6.68;;
77262;SDS011;66373;52.334;4.806;2024-03-08T09:41:42;10.43;;;6.50;;
77262;SDS011;66373;52.334;4.806;2024-03-08T09:44:14;8.77;;;6.78;;
77262;SDS011;66373;52.334;4.806;2024-03-08T09:46:45;10.07;;;6.75;;
77262;SDS011;66373;52.334;4.806;2024-03-08T09:49:13;9.98;;;7.03;;
77262;SDS011;66373;52.334;4.806;2024-03-08T09:51:42;8.77;;;7.13;;
77262;SDS011;66373;52.334;4.806;2024-03-08T09:54:10;11.07;;;7.00;;
77262;SDS011;66373;52.334;4.806;2024-03-08T09:56:39;8.93;;;6.28;;
77262;SDS011;66373;52.334;4.806;2024-03-08T10:02:08;10.77;;;6.57;;
77262;SDS011;66373;52.334;4.806;2024-03-08T10:04:41;7.00;;;6.30;;
77262;SDS011;66373;52.334;4.806;2024-03-08T10:07:11;11.98;;;7.38;;
77262;SDS011;66373;52.334;4.806;2024-03-08T10:09:40;8.13;;;6.90;;
77262;SDS011;66373;52.334;4.806;2024-03-08T10:12:13;9.25;;;7.05;;
77262;SDS011;66373;52.334;4.806;2024-03-08T10:14:42;10.55;;;7.57;;
77262;SDS011;66373;52.334;4.806;2024-03-08T10:17:12;7.90;;;6.80;;
77262;SDS011;66373;52.334;4.806;2024-03-08T10:19:41;10.02;;;6.05;;
77262;SDS011;66373;52.334;4.806;2024-03-08T10:22:16;10.32;;;7.10;;
77262;SDS011;66373;52.334;4.806;2024-03-08T10:24:45;8.07;;;6.78;;
77262;SDS011;66373;52.334;4.806;2024-03-08T10:27:12;8.38;;;6.32;;
77262;SDS011;66373;52.334;4.806;2024-03-08T10:29:41;7.22;;;6.43;;
77262;SDS011;66373;52.334;4.806;2024-03-08T10:32:09;7.57;;;6.72;;
77262;SDS011;66373;52.334;4.806;2024-03-08T10:34:38;8.10;;;6.63;;
77262;SDS011;66373;52.334;4.806;2024-03-08T10:37:07;9.98;;;6.57;;
77262;SDS011;66373;52.334;4.806;2024-03-08T10:39:42;7.90;;;6.82;;
77262;SDS011;66373;52.334;4.806;2024-03-08T10:42:25;8.95;;;6.50;;
77262;SDS011;66373;52.334;4.806;2024-03-08T10:44:58;9.68;;;6.43;;
77262;SDS011;66373;52.334;4.806;2024-03-08T10:47:34;7.72;;;6.55;;
77262;SDS011;66373;52.334;4.806;2024-03-08T10:50:08;8.27;;;6.53;;
77262;SDS011;66373;52.334;4.806;2024-03-08T10:52:46;8.60;;;5.97;;
77262;SDS011;66373;52.334;4.806;2024-03-08T10:55:16;7.45;;;6.25;;
77262;SDS011;66373;52.334;4.806;2024-03-08T10:57:45;9.45;;;6.47;;
77262;SDS011;66373;52.334;4.806;2024-03-08T11:00:14;8.77;;;6.28;;
77262;SDS011;66373;52.334;4.806;2024-03-08T11:02:45;7.28;;;6.30;;
77262;SDS011;66373;52.334;4.806;2024-03-08T11:05:16;8.80;;;7.13;;
77262;SDS011;66373;52.334;4.806;2024-03-08T11:08:00;7.40;;;6.20;;
77262;SDS011;66373;52.334;4.806;2024-03-08T11:10:29;9.10;;;7.03;;
77262;SDS011;66373;52.334;4.806;2024-03-08T11:12:56;6.95;;;5.93;;
77262;SDS011;66373;52.334;4.806;2024-03-08T11:15:24;9.57;;;6.70;;
77262;SDS011;66373;52.334;4.806;2024-03-08T11:17:53;8.82;;;6.93;;
77262;SDS011;66373;52.334;4.806;2024-03-08T11:20:25;7.45;;;6.18;;
77262;SDS011;66373;52.334;4.806;2024-03-08T11:22:54;8.82;;;6.30;;
77262;SDS011;66373;52.334;4.806;2024-03-08T11:25:30;7.53;;;6.45;;
77262;SDS011;66373;52.334;4.806;2024-03-08T11:28:12;8.02;;;7.00;;
77262;SDS011;66373;52.334;4.806;2024-03-08T11:30:44;7.03;;;6.32;;
77262;SDS011;66373;52.334;4.806;2024-03-08T11:33:15;9.07;;;6.10;;
77262;SDS011;66373;52.334;4.806;2024-03-08T11:35:44;9.48;;;6.10;;
77262;SDS011;66373;52.334;4.806;2024-03-08T11:38:11;8.98;;;6.22;;
77262;SDS011;66373;52.334;4.806;2024-03-08T11:40:42;8.43;;;6.55;;
77262;SDS011;66373;52.334;4.806;2024-03-08T11:43:09;8.45;;;6.13;;
77262;SDS011;66373;52.334;4.806;2024-03-08T11:45:36;7.63;;;6.53;;
77262;SDS011;66373;52.334;4.806;2024-03-08T11:48:06;6.95;;;6.28;;
77262;SDS011;66373;52.334;4.806;2024-03-08T11:50:35;8.00;;;6.43;;
77262;SDS011;66373;52.334;4.806;2024-03-08T11:53:04;8.52;;;6.13;;
77262;SDS011;66373;52.334;4.806;2024-03-08T11:55:32;9.95;;;6.38;;
77262;SDS011;66373;52.334;4.806;2024-03-08T11:58:02;8.02;;;6.20;;
77262;SDS011;66373;52.334;4.806;2024-03-08T12:00:29;6.97;;;6.22;;
77262;SDS011;66373;52.334;4.806;2024-03-08T12:03:01;6.97;;;6.07;;
77262;SDS011;66373;52.334;4.806;2024-03-08T12:05:29;8.05;;;6.20;;
77262;SDS011;66373;52.334;4.806;2024-03-08T12:08:00;7.93;;;6.18;;
77262;SDS011;66373;52.334;4.806;2024-03-08T12:10:27;7.38;;;6.60;;
77262;SDS011;66373;52.334;4.806;2024-03-08T12:12:55;8.75;;;6.35;;
77262;SDS011;66373;52.334;4.806;2024-03-08T12:15:24;6.68;;;6.07;;
77262;SDS011;66373;52.334;4.806;2024-03-08T12:17:53;7.38;;;6.20;;
77262;SDS011;66373;52.334;4.806;2024-03-08T12:20:21;7.55;;;5.60;;
77262;SDS011;66373;52.334;4.806;2024-03-08T12:22:51;6.82;;;6.03;;
77262;SDS011;66373;52.334;4.806;2024-03-08T12:25:20;7.88;;;6.15;;
77262;SDS011;66373;52.334;4.806;2024-03-08T12:27:48;7.38;;;6.50;;
77262;SDS011;66373;52.334;4.806;2024-03-08T12:30:18;7.70;;;6.40;;
77262;SDS011;66373;52.334;4.806;2024-03-08T12:32:51;7.88;;;5.68;;
77262;SDS011;66373;52.334;4.806;2024-03-08T12:35:22;7.20;;;6.45;;
77262;SDS011;66373;52.334;4.806;2024-03-08T12:37:50;6.75;;;5.78;;
77262;SDS011;66373;52.334;4.806;2024-03-08T12:40:21;6.65;;;5.47;;
77262;SDS011;66373;52.334;4.806;2024-03-08T12:42:54;7.97;;;6.15;;
77262;SDS011;66373;52.334;4.806;2024-03-08T12:45:21;6.75;;;5.95;;
77262;SDS011;66373;52.334;4.806;2024-03-08T12:47:50;8.52;;;6.97;;
77262;SDS011;66373;52.334;4.806;2024-03-08T12:50:18;7.97;;;6.82;;
77262;SDS011;66373;52.334;4.806;2024-03-08T12:52:46;8.98;;;6.65;;
77262;SDS011;66373;52.334;4.806;2024-03-08T12:55:14;6.43;;;5.35;;
77262;SDS011;66373;52.334;4.806;2024-03-08T12:57:43;7.90;;;6.50;;
77262;SDS011;66373;52.334;4.806;2024-03-08T13:00:12;6.63;;;5.93;;
77262;SDS011;66373;52.334;4.806;2024-03-08T13:02:44;7.57;;;5.95;;
77262;SDS011;66373;52.334;4.806;2024-03-08T13:05:11;7.43;;;6.07;;
77262;SDS011;66373;52.334;4.806;2024-03-08T13:07:39;10.05;;;6.10;;
77262;SDS011;66373;52.334;4.806;2024-03-08T13:10:11;7.18;;;5.95;;
77262;SDS011;66373;52.334;4.806;2024-03-08T13:12:42;8.13;;;6.10;;
77262;SDS011;66373;52.334;4.806;2024-03-08T13:15:10;7.40;;;5.97;;
77262;SDS011;66373;52.334;4.806;2024-03-08T13:17:41;7.35;;;5.85;;
77262;SDS011;66373;52.334;4.806;2024-03-08T13:20:10;7.78;;;6.13;;
77262;SDS011;66373;52.334;4.806;2024-03-08T13:22:44;7.93;;;5.93;;
77262;SDS011;66373;52.334;4.806;2024-03-08T13:25:12;6.93;;;5.90;;
77262;SDS011;66373;52.334;4.806;2024-03-08T13:27:40;7.38;;;6.47;;
77262;SDS011;66373;52.334;4.806;2024-03-08T13:30:09;7.47;;;5.93;;
77262;SDS011;66373;52.334;4.806;2024-03-08T13:32:38;6.63;;;5.95;;
77262;SDS011;66373;52.334;4.806;2024-03-08T13:35:08;7.50;;;6.00;;
77262;SDS011;66373;52.334;4.806;2024-03-08T13:37:38;6.75;;;6.05;;
77262;SDS011;66373;52.334;4.806;2024-03-08T13:40:06;6.25;;;5.65;;
77262;SDS011;66373;52.334;4.806;2024-03-08T13:42:39;7.20;;;5.90;;
77262;SDS011;66373;52.334;4.806;2024-03-08T13:45:09;8.05;;;5.85;;
77262;SDS011;66373;52.334;4.806;2024-03-08T13:47:38;7.57;;;6.30;;
77262;SDS011;66373;52.334;4.806;2024-03-08T13:50:06;6.05;;;5.50;;
77262;SDS011;66373;52.334;4.806;2024-03-08T13:52:37;8.52;;;6.22;;
77262;SDS011;66373;52.334;4.806;2024-03-08T13:55:05;6.55;;;5.30;;
77262;SDS011;66373;52.334;4.806;2024-03-08T13:57:33;7.68;;;6.25;;
77262;SDS011;66373;52.334;4.806;2024-03-08T14:00:00;7.05;;;6.10;;
77262;SDS011;66373;52.334;4.806;2024-03-08T14:02:40;6.93;;;6.22;;
77262;SDS011;66373;52.334;4.806;2024-03-08T14:05:07;6.72;;;6.03;;
77262;SDS011;66373;52.334;4.806;2024-03-08T14:07:35;9.25;;;6.43;;
77262;SDS011;66373;52.334;4.806;2024-03-08T14:10:02;9.52;;;6.40;;
77262;SDS011;66373;52.334;4.806;2024-03-08T14:12:32;7.53;;;5.78;;
77262;SDS011;66373;52.334;4.806;2024-03-08T14:15:00;8.50;;;6.13;;
77262;SDS011;66373;52.334;4.806;2024-03-08T14:17:29;7.25;;;5.72;;
77262;SDS011;66373;52.334;4.806;2024-03-08T14:19:58;8.32;;;5.80;;
77262;SDS011;66373;52.334;4.806;2024-03-08T14:22:28;7.28;;;5.95;;
77262;SDS011;66373;52.334;4.806;2024-03-08T14:24:57;9.77;;;6.35;;
77262;SDS011;66373;52.334;4.806;2024-03-08T14:27:24;7.63;;;5.65;;
77262;SDS011;66373;52.334;4.806;2024-03-08T14:29:52;7.90;;;6.78;;
77262;SDS011;66373;52.334;4.806;2024-03-08T14:32:20;6.85;;;6.15;;
77262;SDS011;66373;52.334;4.806;2024-03-08T14:34:48;10.05;;;6.65;;
77262;SDS011;66373;52.334;4.806;2024-03-08T14:37:17;7.65;;;6.22;;
77262;SDS011;66373;52.334;4.806;2024-03-08T14:39:48;8.48;;;6.53;;
77262;SDS011;66373;52.334;4.806;2024-03-08T14:42:17;10.18;;;6.75;;
77262;SDS011;66373;52.334;4.806;2024-03-08T14:44:47;8.15;;;6.70;;
77262;SDS011;66373;52.334;4.806;2024-03-08T14:47:16;9.73;;;6.30;;
77262;SDS011;66373;52.334;4.806;2024-03-08T14:49:44;7.78;;;6.35;;